首页
METAR-TAF:

METAR-TAF

机场 :

阿尔汉格尔斯克, 俄罗斯

纬度: 64-30N, 经度: 040-44E, 海拔: 13米

当前天气观测

该预报发布于20分钟前的02:00 UTC
风速6节,风向西转西南
温度 15°C
湿度 88%
气压 1004 hPa
能见度10公里或以上
多云层高于2800英尺

METAR: ULAA 230200Z 25003MPS 9999 BKN028 15/13 Q1004 R08/290060 NOSIG RMK QFE752/1002

时间: 05:20 (02:20 UTC)

预报

该预报发布于3小时和16分钟前的23:04 UTC
预报有效从23日的 00点(UTC)到 23日的 24点(UTC)
风速10节,风向南转南东,有时为19节阵风
能見度: 6000
散云层高于1100英尺, 积雨云.
多云层高于1500英尺
短暂存在
从 23日的 00点(UTC)到 23日的 06点(UTC)
风速12节,风向南转西南,有时为25节阵风
能見度: 2000
多云层高于500英尺
多云层高于1200英尺, 积雨云.
阵雨, 轻雾
几率 40% :
短暂存在
从 23日的 00点(UTC)到 23日的 06点(UTC)
多云层高于1100英尺, 积雨云.
雷暴, 雨
从 23日的 0600点(UTC)
风速10节,风向西南
能见度10公里或以上
多云层高于1500英尺
短暂存在
从 23日的 06点(UTC)到 23日的 18点(UTC)
风速12节,风向西转西南,有时为25节阵风
能見度: 3100
多云层高于1200英尺, 积雨云.
小阵雨
几率 40% :
短暂存在
从 23日的 09点(UTC)到 23日的 15点(UTC)
多云层高于1100英尺, 积雨云.
雷暴, 小雨
短暂存在
从 23日的 18点(UTC)到 23日的 24点(UTC)
风速2节,风向多变
能見度: 2100
多云层高于700英尺
轻雾

TAF: ULAA 222304Z 2300/2324 15005G10MPS 6000 SCT011CB BKN015 TEMPO 2300/2306 20006G13MPS 2000 SHRA BR BKN005 BKN012CB PROB40 TEMPO 2300/2306 TSRA BKN011CB FM230600 23005MPS 9999 BKN015 TEMPO 2306/2318 24006G13MPS 3100 -SHRA BKN012CB PROB40 TEMPO 2309/2315 -TSRA BKN011CB TEMPO 2318/2324 VRB01MPS 2100 BR BKN007

超过4000个机场的气象观测和天气预报(METAR&TAF报告)。

可查询的气象台以黄色和红色小点在地图上表示。

将鼠标移到小点上方,可查看气象台名称。

然后点击查看天气观测和预报。

如需切换地图:点击带黑十字的绿色按钮放大地图;点击带横线的绿色按钮缩小地图;或者点击绿色箭头查看邻近地区的地图。


METAR-TAF: